createdAt,value
2023-04-06T00:00:17.423Z,21.94
2023-04-06T00:01:02.020Z,22.82
2023-04-06T00:01:46.910Z,21.94
2023-04-06T00:02:31.994Z,18.06
2023-04-06T00:03:17.791Z,22.47
2023-04-06T00:04:02.651Z,23.17
2023-04-06T00:04:47.568Z,19.70
2023-04-06T00:05:32.356Z,25.45
2023-04-06T00:06:17.530Z,25.63
2023-04-06T00:07:02.641Z,24.92
2023-04-06T00:07:53.568Z,19.57
2023-04-06T00:08:32.810Z,20.25
2023-04-06T00:09:17.773Z,20.52
2023-04-06T00:10:03.794Z,25.27
2023-04-06T00:10:47.893Z,25.45
2023-04-06T00:11:35.553Z,26.50
2023-04-06T00:12:17.850Z,26.50
2023-04-06T00:13:02.585Z,26.15
2023-04-06T00:13:47.568Z,25.45
2023-04-06T00:14:32.999Z,27.21
2023-04-06T00:15:19.143Z,19.57
2023-04-06T00:16:02.941Z,29.14
2023-04-06T00:16:48.157Z,25.98
2023-04-06T00:17:33.175Z,24.92
2023-04-06T00:18:17.825Z,26.85
2023-04-06T00:19:03.469Z,25.80
2023-04-06T00:19:47.707Z,26.85
2023-04-06T00:20:33.483Z,27.03
2023-04-06T00:21:18.057Z,27.91
2023-04-06T00:22:03.699Z,26.68
2023-04-06T00:22:48.300Z,24.92
2023-04-06T00:23:33.516Z,27.21
2023-04-06T00:24:18.652Z,28.96
2023-04-06T00:25:03.907Z,25.63
2023-04-06T00:25:48.295Z,26.15
2023-04-06T00:26:36.009Z,22.64
2023-04-06T00:27:18.940Z,22.29
2023-04-06T00:28:04.176Z,25.10
2023-04-06T00:29:34.544Z,23.52
2023-04-06T00:30:19.241Z,24.05
2023-04-06T00:31:04.071Z,19.43
2023-04-06T00:31:48.980Z,23.17
2023-04-06T00:32:34.618Z,25.63
2023-04-06T00:33:19.096Z,22.29
2023-04-06T00:34:04.231Z,23.17
2023-04-06T00:34:49.496Z,24.22
2023-04-06T00:35:34.764Z,24.22
2023-04-06T00:36:22.397Z,24.75
2023-04-06T00:37:04.098Z,23.17
2023-04-06T00:37:49.121Z,25.27
2023-04-06T00:38:33.946Z,25.45
2023-04-06T00:39:20.916Z,24.22
2023-04-06T00:40:07.702Z,22.99
2023-04-06T00:40:49.781Z,27.73
2023-04-06T00:41:34.837Z,24.75
2023-04-06T00:42:22.357Z,19.43
2023-04-06T00:43:04.494Z,24.57
2023-04-06T00:43:52.130Z,22.99
2023-04-06T00:44:44.477Z,23.70
2023-04-06T00:45:19.724Z,22.99
2023-04-06T00:46:13.636Z,24.05
2023-04-06T00:46:49.522Z,28.43
2023-04-06T00:47:34.536Z,27.56
2023-04-06T00:48:19.587Z,27.56
2023-04-06T00:49:04.617Z,28.79
2023-04-06T00:49:50.044Z,26.85
2023-04-06T00:50:35.096Z,26.15
2023-04-06T00:51:19.779Z,24.40
2023-04-06T00:52:05.020Z,25.80
2023-04-06T00:52:49.805Z,27.03
2023-04-06T00:53:34.732Z,25.80
2023-04-06T00:54:20.764Z,25.80
2023-04-06T00:55:05.332Z,25.63
2023-04-06T00:55:49.773Z,24.40
2023-04-06T00:56:35.694Z,27.38
2023-04-06T00:57:20.091Z,25.80
2023-04-06T00:58:05.146Z,26.50
2023-04-06T00:58:50.627Z,25.98
2023-04-06T00:59:35.257Z,19.70
2023-04-06T01:00:20.530Z,26.33
2023-04-06T01:01:05.449Z,25.98
2023-04-06T01:01:50.533Z,27.03
2023-04-06T01:02:35.360Z,27.03
2023-04-06T01:03:20.753Z,25.80
2023-04-06T01:04:05.782Z,27.03
2023-04-06T01:04:50.626Z,19.70
2023-04-06T01:05:35.493Z,26.15
2023-04-06T01:06:20.916Z,27.91
2023-04-06T01:07:06.778Z,27.38
2023-04-06T01:07:50.618Z,23.70
2023-04-06T01:08:35.793Z,25.27
2023-04-06T01:09:20.921Z,28.96
2023-04-06T01:10:06.078Z,27.56
2023-04-06T01:10:50.914Z,27.56
2023-04-06T01:11:36.305Z,27.21
2023-04-06T01:12:21.268Z,27.38
2023-04-06T01:13:06.920Z,25.98
2023-04-06T01:13:51.886Z,28.26
2023-04-06T01:14:36.025Z,26.68
2023-04-06T01:15:21.801Z,27.91
2023-04-06T01:16:07.124Z,27.56
2023-04-06T01:16:51.888Z,25.27
2023-04-06T01:17:36.820Z,24.92
2023-04-06T01:18:21.850Z,24.05
2023-04-06T01:19:07.007Z,28.79
2023-04-06T01:19:51.814Z,28.43
2023-04-06T01:20:36.828Z,27.73
2023-04-06T01:21:22.574Z,26.50
2023-04-06T01:22:06.699Z,28.61
2023-04-06T01:22:51.937Z,25.98
2023-04-06T01:23:36.764Z,27.56
2023-04-06T01:24:22.277Z,26.33
2023-04-06T01:25:07.901Z,27.03
2023-04-06T01:25:52.013Z,26.50
2023-04-06T01:26:38.331Z,28.43
2023-04-06T01:27:22.577Z,27.38
2023-04-06T01:28:08.055Z,20.52
2023-04-06T01:28:54.374Z,28.08
2023-04-06T01:29:39.099Z,28.08
2023-04-06T01:30:23.006Z,25.98
2023-04-06T01:31:08.900Z,25.45
2023-04-06T01:31:52.898Z,25.80
2023-04-06T01:32:38.323Z,26.50
2023-04-06T01:33:23.185Z,26.33
2023-04-06T01:34:08.815Z,26.33
2023-04-06T01:34:54.161Z,28.26
2023-04-06T01:35:37.741Z,25.10
2023-04-06T01:36:23.801Z,26.15
2023-04-06T01:37:08.580Z,27.91
2023-04-06T01:37:53.197Z,20.93
2023-04-06T01:38:38.030Z,27.73
2023-04-06T01:39:23.314Z,26.85
2023-04-06T01:40:09.042Z,28.79
2023-04-06T01:40:53.206Z,27.21
2023-04-06T01:41:38.272Z,20.80
2023-04-06T01:42:23.660Z,27.38
2023-04-06T01:43:09.068Z,26.33
2023-04-06T01:43:53.558Z,27.03
2023-04-06T01:44:38.465Z,26.33
2023-04-06T01:45:23.762Z,27.73
2023-04-06T01:46:08.663Z,26.50
2023-04-06T01:46:54.090Z,26.68
2023-04-06T01:47:39.230Z,26.85
2023-04-06T01:48:24.453Z,25.45
2023-04-06T01:49:09.010Z,25.63
2023-04-06T01:49:54.014Z,23.87
2023-04-06T01:50:38.858Z,23.34
2023-04-06T01:51:24.538Z,23.17
2023-04-06T01:52:09.070Z,24.05
2023-04-06T01:52:54.117Z,24.92
2023-04-06T01:53:39.288Z,27.03
2023-04-06T01:54:24.111Z,23.34
2023-04-06T01:55:09.559Z,24.05
2023-04-06T01:55:54.738Z,24.57
2023-04-06T01:56:39.979Z,27.56
2023-04-06T01:57:24.615Z,23.52
2023-04-06T01:58:09.777Z,25.80
2023-04-06T01:58:54.310Z,26.15
2023-04-06T01:59:39.380Z,25.63
2023-04-06T02:00:24.997Z,22.47
2023-04-06T02:01:09.458Z,23.87
2023-04-06T02:01:55.041Z,21.59
2023-04-06T02:02:40.130Z,16.42
2023-04-06T02:03:24.501Z,23.70
2023-04-06T02:04:10.694Z,23.17
2023-04-06T02:04:55.486Z,22.99
2023-04-06T02:05:40.788Z,17.51
2023-04-06T02:06:25.417Z,22.47
2023-04-06T02:07:10.418Z,22.47
2023-04-06T02:07:55.013Z,18.96
2023-04-06T02:08:40.461Z,19.13
2023-04-06T02:09:25.570Z,18.61
2023-04-06T02:10:10.118Z,18.78
2023-04-06T02:10:55.609Z,18.78
2023-04-06T02:11:40.149Z,17.73
2023-04-06T02:12:25.802Z,18.78
2023-04-06T02:13:10.808Z,18.08
2023-04-06T02:13:55.283Z,17.38
2023-04-06T02:14:40.395Z,18.61
2023-04-06T02:15:26.093Z,19.31
2023-04-06T02:16:10.528Z,19.48
2023-04-06T02:16:56.349Z,19.31
2023-04-06T02:17:40.596Z,19.31
2023-04-06T02:18:25.860Z,19.83
2023-04-06T02:19:11.336Z,19.31
2023-04-06T02:19:55.687Z,19.13
2023-04-06T02:20:40.978Z,18.43
2023-04-06T02:21:26.165Z,20.71
2023-04-06T02:22:11.105Z,18.43
2023-04-06T02:22:56.320Z,20.18
2023-04-06T02:23:41.549Z,19.31
2023-04-06T02:24:26.581Z,20.18
2023-04-06T02:25:11.971Z,20.54
2023-04-06T02:25:56.341Z,21.59
2023-04-06T02:26:40.897Z,21.59
2023-04-06T02:27:26.971Z,20.01
2023-04-06T02:28:12.038Z,21.94
2023-04-06T02:28:58.282Z,21.06
2023-04-06T02:29:42.350Z,20.54
2023-04-06T02:30:28.727Z,21.06
2023-04-06T02:31:11.892Z,20.01
2023-04-06T02:31:56.920Z,17.73
2023-04-06T02:32:42.738Z,13.68
2023-04-06T02:33:26.534Z,19.31
2023-04-06T02:34:11.704Z,13.68
2023-04-06T02:34:57.552Z,17.03
2023-04-06T02:35:41.939Z,17.20
2023-04-06T02:36:28.182Z,15.62
2023-04-06T02:37:11.998Z,17.03
2023-04-06T02:37:57.664Z,11.77
2023-04-06T02:38:43.026Z,12.31
2023-04-06T02:39:27.470Z,15.62
2023-04-06T02:40:12.528Z,16.67
2023-04-06T02:40:58.094Z,14.22
2023-04-06T02:41:43.674Z,15.97
2023-04-06T02:42:28.415Z,11.63
2023-04-06T02:43:12.878Z,15.80
2023-04-06T02:43:59.036Z,15.62
2023-04-06T02:44:43.380Z,15.27
2023-04-06T02:45:27.921Z,14.57
2023-04-06T02:46:13.029Z,13.87
2023-04-06T02:46:58.029Z,13.87
2023-04-06T02:47:42.658Z,14.04
2023-04-06T02:48:27.690Z,10.12
2023-04-06T02:49:12.437Z,14.22
2023-04-06T02:49:57.644Z,13.16
2023-04-06T02:50:43.225Z,14.57
2023-04-06T02:51:28.370Z,14.74
2023-04-06T02:52:13.035Z,13.52
2023-04-06T02:52:58.143Z,14.22
2023-04-06T02:53:43.130Z,14.04
2023-04-06T02:54:29.004Z,13.87
2023-04-06T02:55:13.848Z,13.87
2023-04-06T02:55:58.106Z,11.49
2023-04-06T02:56:43.293Z,12.31
2023-04-06T02:57:28.857Z,11.94
2023-04-06T02:58:13.308Z,12.81
2023-04-06T02:58:58.155Z,13.34
2023-04-06T02:59:43.616Z,13.16
2023-04-06T03:00:28.961Z,12.11
2023-04-06T03:01:13.862Z,13.69
2023-04-06T03:01:58.605Z,12.81
2023-04-06T03:02:43.456Z,13.16
2023-04-06T03:03:28.997Z,9.30
2023-04-06T03:05:24.059Z,12.99
2023-04-06T03:05:44.061Z,9.44
2023-04-06T03:07:04.556Z,9.58
2023-04-06T03:07:19.504Z,12.64
2023-04-06T03:07:59.206Z,9.71
2023-04-06T03:08:43.878Z,12.29
2023-04-06T03:09:29.012Z,11.41
2023-04-06T03:10:13.766Z,11.58
2023-04-06T03:10:58.748Z,9.83
2023-04-06T03:11:44.917Z,10.36
2023-04-06T03:12:29.342Z,8.25
2023-04-06T03:13:14.122Z,9.30
2023-04-06T03:13:59.870Z,6.70
2023-04-06T03:14:44.291Z,7.39
2023-04-06T03:15:29.393Z,8.42
2023-04-06T03:16:14.313Z,8.60
2023-04-06T03:16:59.837Z,9.65
2023-04-06T03:17:50.928Z,9.83
2023-04-06T03:18:29.608Z,9.30
2023-04-06T03:19:14.690Z,8.60
2023-04-06T03:20:00.491Z,7.37
2023-04-06T03:20:44.787Z,7.90
2023-04-06T03:21:30.010Z,7.55
2023-04-06T03:22:14.556Z,7.55
2023-04-06T03:23:00.573Z,8.78
2023-04-06T03:23:44.942Z,8.25
2023-04-06T03:24:30.194Z,9.30
2023-04-06T03:25:18.856Z,7.37
2023-04-06T03:26:00.246Z,7.20
2023-04-06T03:26:45.430Z,7.20
2023-04-06T03:27:30.647Z,7.37
2023-04-06T03:28:15.509Z,7.20
2023-04-06T03:29:00.645Z,7.37
2023-04-06T03:29:45.747Z,7.02
2023-04-06T03:30:30.294Z,5.34
2023-04-06T03:31:16.516Z,6.67
2023-04-06T03:32:00.692Z,7.72
2023-04-06T03:32:45.750Z,6.67
2023-04-06T03:33:30.784Z,6.32
2023-04-06T03:34:15.570Z,6.67
2023-04-06T03:35:01.476Z,5.97
2023-04-06T03:35:47.516Z,5.97
2023-04-06T03:36:30.900Z,6.32
2023-04-06T03:37:16.119Z,6.85
2023-04-06T03:38:01.182Z,6.85
2023-04-06T03:38:51.988Z,5.61
2023-04-06T03:39:34.131Z,7.37
2023-04-06T03:40:17.919Z,6.67
2023-04-06T03:41:08.193Z,6.67
2023-04-06T03:41:46.600Z,7.55
2023-04-06T03:42:31.091Z,6.29
2023-04-06T03:43:16.235Z,7.90
2023-04-06T03:44:02.078Z,6.85
2023-04-06T03:44:45.981Z,6.67
2023-04-06T03:45:32.136Z,7.20
2023-04-06T03:46:17.271Z,8.25
2023-04-06T03:47:02.033Z,10.18
2023-04-06T03:47:46.808Z,10.71
2023-04-06T03:48:31.891Z,11.23
2023-04-06T03:49:16.793Z,10.00
2023-04-06T03:50:01.783Z,10.53
2023-04-06T03:50:47.110Z,10.36
2023-04-06T03:51:32.404Z,9.65
2023-04-06T03:52:17.324Z,7.66
2023-04-06T03:53:02.132Z,9.83
2023-04-06T03:53:46.973Z,8.60
2023-04-06T03:54:32.700Z,10.53
2023-04-06T03:55:17.433Z,10.18
2023-04-06T03:56:04.237Z,8.95
2023-04-06T03:56:47.297Z,8.95
2023-04-06T03:57:32.613Z,8.07
2023-04-06T03:58:17.981Z,7.37
2023-04-06T03:59:03.097Z,6.02
2023-04-06T03:59:47.886Z,7.90
2023-04-06T04:00:33.373Z,8.07
2023-04-06T04:01:18.134Z,7.90
2023-04-06T04:02:02.752Z,7.37
2023-04-06T04:02:48.585Z,8.25
2023-04-06T04:03:33.925Z,6.02
2023-04-06T04:04:18.120Z,7.37
2023-04-06T04:05:03.745Z,6.02
2023-04-06T04:05:48.905Z,7.55
2023-04-06T04:06:33.411Z,7.37
2023-04-06T04:07:20.701Z,7.72
2023-04-06T04:08:10.164Z,5.75
2023-04-06T04:08:48.157Z,6.49
2023-04-06T04:09:33.694Z,7.37
2023-04-06T04:10:19.743Z,7.55
2023-04-06T04:11:03.937Z,6.85
2023-04-06T04:11:49.203Z,5.34
2023-04-06T04:12:33.636Z,6.14
2023-04-06T04:13:18.811Z,5.97
2023-04-06T04:14:03.853Z,5.44
2023-04-06T04:14:49.005Z,4.91
2023-04-06T04:15:34.065Z,4.74
2023-04-06T04:16:19.361Z,4.56
2023-04-06T04:17:04.515Z,3.51
2023-04-06T04:17:48.994Z,5.09
2023-04-06T04:18:33.881Z,4.21
2023-04-06T04:19:19.548Z,4.91
2023-04-06T04:20:04.791Z,5.09
2023-04-06T04:20:49.106Z,4.04
2023-04-06T04:21:34.366Z,4.04
2023-04-06T04:22:19.475Z,4.39
2023-04-06T04:23:04.848Z,4.39
2023-04-06T04:23:52.556Z,4.21
2023-04-06T04:24:37.977Z,5.09
2023-04-06T04:25:19.488Z,3.42
2023-04-06T04:26:05.895Z,4.21
2023-04-06T04:26:49.905Z,4.56
2023-04-06T04:27:34.980Z,4.74
2023-04-06T04:28:22.496Z,4.56
2023-04-06T04:30:37.348Z,3.86
2023-04-06T04:31:20.403Z,3.86
2023-04-06T04:32:05.663Z,4.04
2023-04-06T04:32:50.376Z,4.39
2023-04-06T04:33:36.590Z,4.39
2023-04-06T04:34:20.535Z,3.86
2023-04-06T04:35:11.600Z,4.04
2023-04-06T04:35:50.167Z,3.01
2023-04-06T04:36:34.852Z,4.04
2023-04-06T04:38:07.316Z,4.04
2023-04-06T04:38:50.628Z,3.51
2023-04-06T04:39:35.400Z,4.39
2023-04-06T04:40:24.758Z,4.04
2023-04-06T04:41:06.531Z,4.91
2023-04-06T04:41:50.647Z,3.69
2023-04-06T04:42:36.316Z,3.01
2023-04-06T04:43:21.686Z,3.28
2023-04-06T04:44:05.722Z,3.51
2023-04-06T04:47:43.745Z,4.21
2023-04-06T04:48:30.637Z,4.21
2023-04-06T04:49:26.524Z,4.04
2023-04-06T04:49:58.176Z,3.83
2023-04-06T04:50:42.972Z,4.74
2023-04-06T04:51:28.299Z,4.56
2023-04-06T04:52:13.557Z,4.56
2023-04-06T04:52:58.526Z,4.39
2023-04-06T04:53:44.793Z,4.74
2023-04-06T04:54:31.481Z,3.97
2023-04-06T04:55:13.752Z,4.74
2023-04-06T04:56:08.720Z,4.91
2023-04-06T04:56:43.885Z,5.62
2023-04-06T04:57:29.255Z,5.09
2023-04-06T04:58:13.898Z,3.56
2023-04-06T04:59:00.354Z,5.09
2023-04-06T04:59:44.329Z,5.27
2023-04-06T05:00:29.512Z,5.09
2023-04-06T05:01:14.180Z,4.91
2023-04-06T05:02:00.716Z,5.27
2023-04-06T05:02:44.078Z,5.44
2023-04-06T05:03:29.795Z,5.44
2023-04-06T05:04:27.395Z,5.62
2023-04-06T05:05:00.366Z,5.97
2023-04-06T05:05:44.407Z,4.93
2023-04-06T05:06:30.497Z,5.27
2023-04-06T05:07:14.424Z,6.49
2023-04-06T05:08:03.069Z,6.32
2023-04-06T05:08:44.500Z,5.97
2023-04-06T05:09:29.374Z,6.32
2023-04-06T05:10:15.011Z,7.72
2023-04-06T05:10:59.469Z,6.85
2023-04-06T05:11:47.077Z,6.67
2023-04-06T05:12:32.334Z,7.90
2023-04-06T05:13:14.734Z,5.61
2023-04-06T05:14:01.298Z,7.72
2023-04-06T05:14:44.840Z,8.95
2023-04-06T05:15:29.711Z,8.95
2023-04-06T05:16:14.995Z,8.25
2023-04-06T05:16:59.808Z,9.13
2023-04-06T05:17:45.544Z,8.42
2023-04-06T05:18:30.261Z,8.78
2023-04-06T05:19:19.019Z,9.30
2023-04-06T05:20:00.576Z,9.13
2023-04-06T05:20:46.312Z,7.11
2023-04-06T05:21:30.259Z,7.80
2023-04-06T05:22:15.832Z,8.21
2023-04-06T05:23:05.905Z,8.48
2023-04-06T05:23:45.134Z,12.64
2023-04-06T05:24:30.569Z,12.99
2023-04-06T05:25:15.127Z,12.46
2023-04-06T05:26:00.174Z,12.99
2023-04-06T05:26:45.496Z,9.58
2023-04-06T05:27:30.525Z,11.94
2023-04-06T05:28:16.061Z,13.16
2023-04-06T05:29:00.682Z,12.81
2023-04-06T05:29:45.349Z,12.46
2023-04-06T05:30:30.330Z,13.34
2023-04-06T05:31:15.853Z,12.64
2023-04-06T05:32:00.521Z,10.54
2023-04-06T05:32:46.053Z,15.09
2023-04-06T05:33:30.937Z,14.57
2023-04-06T05:34:15.903Z,13.34
2023-04-06T05:35:03.067Z,13.69
2023-04-06T05:35:46.203Z,14.39
2023-04-06T05:36:30.687Z,15.09
2023-04-06T05:37:16.784Z,12.04
2023-04-06T05:38:01.583Z,15.62
2023-04-06T05:38:46.388Z,15.97
2023-04-06T05:39:31.504Z,15.09
2023-04-06T05:40:16.354Z,15.45
2023-04-06T05:41:00.984Z,15.27
2023-04-06T05:41:46.803Z,16.50
2023-04-06T05:42:31.522Z,15.62
2023-04-06T05:43:16.568Z,17.55
2023-04-06T05:44:01.855Z,17.55
2023-04-06T05:44:47.001Z,16.85
2023-04-06T05:45:32.561Z,16.67
2023-04-06T05:46:17.255Z,17.73
2023-04-06T05:47:02.328Z,18.96
2023-04-06T05:47:49.763Z,19.48
2023-04-06T05:48:31.963Z,18.43
2023-04-06T05:49:17.157Z,18.96
2023-04-06T05:50:03.100Z,19.48
2023-04-06T05:50:48.151Z,21.06
2023-04-06T05:51:32.022Z,21.41
2023-04-06T05:52:17.172Z,21.41
2023-04-06T05:53:02.313Z,20.89
2023-04-06T05:53:47.098Z,21.06
2023-04-06T05:54:31.969Z,22.82
2023-04-06T05:55:18.024Z,22.64
2023-04-06T05:56:02.929Z,23.34
2023-04-06T05:56:47.615Z,22.29
2023-04-06T05:57:32.447Z,22.99
2023-04-06T05:58:17.696Z,23.87
2023-04-06T05:59:02.702Z,22.82
2023-04-06T05:59:47.391Z,24.22
2023-04-06T06:00:32.753Z,24.40
2023-04-06T06:01:18.756Z,24.22
2023-04-06T06:02:02.978Z,24.75
2023-04-06T06:02:48.194Z,19.29
2023-04-06T06:03:33.092Z,25.80
2023-04-06T06:04:27.053Z,24.92
2023-04-06T06:05:03.475Z,25.10
2023-04-06T06:05:53.309Z,26.15
2023-04-06T06:06:32.902Z,25.27
2023-04-06T06:07:18.694Z,25.98
2023-04-06T06:08:04.056Z,27.03
2023-04-06T06:08:48.382Z,28.79
2023-04-06T06:09:40.789Z,21.48
2023-04-06T06:11:07.210Z,28.96
2023-04-06T07:21:54.561Z,27.73
2023-04-06T08:33:05.151Z,27.21
2023-04-06T08:33:49.433Z,25.80
2023-04-06T08:34:33.749Z,26.50
2023-04-06T08:35:18.955Z,25.80
2023-04-06T08:36:03.930Z,27.73
2023-04-06T08:36:49.178Z,25.45
2023-04-06T08:37:34.196Z,27.03
2023-04-06T08:38:19.187Z,27.21
2023-04-06T08:39:04.230Z,28.26
2023-04-06T08:39:49.308Z,24.40
2023-04-06T08:40:34.600Z,19.98
2023-04-06T08:41:19.870Z,25.45
2023-04-06T08:42:04.460Z,19.16
2023-04-06T08:42:49.656Z,24.40
2023-04-06T08:43:37.757Z,24.57
2023-04-06T08:44:19.495Z,24.22
2023-04-06T08:45:04.453Z,24.75
2023-04-06T08:45:49.395Z,25.80
2023-04-06T08:46:34.510Z,24.75
2023-04-06T08:47:20.193Z,24.40
2023-04-06T08:48:04.850Z,25.80
2023-04-06T08:48:49.666Z,25.10
2023-04-06T08:49:37.841Z,25.63
2023-04-06T08:50:20.090Z,26.68
2023-04-06T08:51:05.212Z,27.73
2023-04-06T08:51:50.218Z,28.08
2023-04-06T08:52:38.425Z,27.91
2023-04-06T08:55:12.487Z,27.03
2023-04-06T08:56:11.941Z,28.26
2023-04-06T08:59:52.783Z,21.34
2023-04-06T09:00:00.695Z,25.63
2023-04-06T09:00:31.242Z,27.03
2023-04-06T09:01:33.465Z,26.50
2023-04-06T09:02:05.203Z,20.11
2023-04-06T09:03:36.374Z,27.91
2023-04-06T09:04:16.201Z,21.48
2023-04-06T09:05:05.331Z,30.19
2023-04-06T09:05:43.427Z,25.80
2023-04-06T09:06:34.165Z,27.73
2023-04-06T09:07:20.136Z,27.56
2023-04-06T09:08:01.053Z,28.26
2023-04-06T09:09:00.737Z,27.38
2023-04-06T09:10:35.437Z,28.79
2023-04-06T09:10:59.096Z,28.61
2023-04-06T12:22:02.468Z,51.95
2023-04-06T12:52:03.268Z,50.55
2023-04-06T15:43:03.189Z,39.32
2023-04-06T15:43:46.687Z,31.88
2023-04-06T15:45:18.696Z,40.19
2023-04-06T18:58:00.332Z,35.63
2023-04-06T18:58:28.119Z,37.56
2023-04-06T19:03:17.659Z,35.28
2023-04-06T20:33:01.926Z,21.76
2023-04-06T20:45:48.372Z,21.94
